Time;durP1;ratioP1;P1;durP2;ratioP2;P2;SDS_P1;SDS_P2;PMS_P1;PMS_P2;Temp;Humidity;BMP_temperature;BMP_pressure;BME280_temperature;BME280_humidity;BME280_pressure;Samples;Min_cycle;Max_cycle;Signal;HPM_P1;HPM_P2
2022/05/29 00:02:06;;;;;;;10.45;3.22;;;;;;;8.18;76.57;101793.69;5042105;28;20500;-54
2022/05/29 00:04:32;;;;;;;6.05;2.90;;;;;;;8.22;77.13;101792.44;5042394;28;20413;-54
2022/05/29 00:06:58;;;;;;;8.30;3.08;;;;;;;8.24;77.31;101795.81;5041202;28;20032;-55
2022/05/29 00:09:31;;;;;;;9.93;2.92;;;;;;;8.23;77.68;101786.19;5037376;28;20036;-55
2022/05/29 00:11:58;;;;;;;7.28;2.97;;;;;;;8.23;77.79;101778.25;5041795;28;20396;-55
2022/05/29 00:14:23;;;;;;;15.52;3.58;;;;;;;8.22;77.87;101779.22;5040889;28;20025;-54
2022/05/29 00:16:48;;;;;;;7.50;3.25;;;;;;;8.16;77.91;101774.47;5041739;28;20044;-54
2022/05/29 00:19:14;;;;;;;9.27;3.42;;;;;;;8.11;78.05;101771.38;5040680;28;20043;-55
2022/05/29 00:21:40;;;;;;;11.05;3.00;;;;;;;8.05;78.04;101771.88;5038495;28;20040;-55
2022/05/29 00:24:07;;;;;;;8.68;3.80;;;;;;;8.00;78.15;101776.72;5042021;28;20032;-55
2022/05/29 00:26:33;;;;;;;9.70;3.42;;;;;;;7.95;78.63;101769.19;5039631;28;20033;-55
2022/05/29 00:28:58;;;;;;;9.20;3.15;;;;;;;7.94;78.79;101777.25;5041424;28;20490;-54
2022/05/29 00:31:23;;;;;;;10.05;3.40;;;;;;;7.96;79.10;101770.03;5040601;28;20044;-55
2022/05/29 00:33:49;;;;;;;11.45;3.78;;;;;;;7.98;79.51;101768.94;5040166;28;20035;-54
2022/05/29 00:36:15;;;;;;;7.30;3.25;;;;;;;8.00;79.73;101767.00;5040665;28;20514;-55
2022/05/29 00:38:43;;;;;;;11.63;3.45;;;;;;;8.04;79.79;101770.22;5038222;28;20067;-55
2022/05/29 00:41:22;;;;;;;10.23;3.50;;;;;;;8.03;80.12;101756.16;5042336;28;20151;-55
2022/05/29 00:44:21;;;;;;;8.77;3.42;;;;;;;8.05;80.14;101759.50;5042879;28;20040;-55
2022/05/29 00:46:58;;;;;;;10.90;3.53;;;;;;;8.06;80.11;101760.31;5021064;28;20064;-55
2022/05/29 00:49:31;;;;;;;7.97;3.60;;;;;;;8.09;80.35;101757.41;5040330;28;20056;-56
2022/05/29 00:52:05;;;;;;;8.68;3.40;;;;;;;8.05;80.48;101751.56;5041343;28;20085;-56
2022/05/29 00:54:43;;;;;;;7.78;3.40;;;;;;;8.07;80.17;101748.78;5040348;28;20052;-56
2022/05/29 00:57:17;;;;;;;8.65;3.40;;;;;;;8.08;80.21;101743.34;5037890;28;20099;-55
2022/05/29 00:59:43;;;;;;;9.32;3.38;;;;;;;8.12;80.56;101751.06;5039584;28;20020;-56
2022/05/29 01:02:09;;;;;;;13.07;3.60;;;;;;;8.14;80.54;101743.81;5025034;28;20106;-56
2022/05/29 01:04:37;;;;;;;10.55;3.08;;;;;;;8.15;80.80;101737.56;5039064;28;20515;-55
2022/05/29 01:07:08;;;;;;;10.40;3.60;;;;;;;8.16;80.75;101745.34;5039039;28;20103;-55
2022/05/29 01:09:36;;;;;;;11.18;3.50;;;;;;;8.15;81.06;101734.91;5037601;28;20035;-56
2022/05/29 01:12:16;;;;;;;11.52;3.25;;;;;;;8.14;81.05;101734.06;5039817;28;20033;-56
2022/05/29 01:14:56;;;;;;;6.72;3.47;;;;;;;8.13;80.96;101731.56;5040903;28;20036;-56
2022/05/29 01:17:48;;;;;;;7.93;3.10;;;;;;;8.12;80.93;101728.09;5037949;28;20037;-55
2022/05/29 01:20:46;;;;;;;10.90;3.35;;;;;;;8.11;80.83;101734.34;5039633;28;20539;-56
2022/05/29 01:23:29;;;;;;;12.50;3.45;;;;;;;8.04;80.86;101727.88;4955339;28;20511;-55
2022/05/29 01:26:35;;;;;;;10.20;3.40;;;;;;;8.00;80.85;101726.47;5036974;28;20033;-56
2022/05/29 01:29:07;;;;;;;13.85;3.47;;;;;;;8.00;80.71;101724.66;5040420;28;20526;-56
2022/05/29 01:31:39;;;;;;;9.68;3.63;;;;;;;7.96;80.54;101725.06;5041736;28;20025;-56
2022/05/29 01:34:26;;;;;;;9.93;3.30;;;;;;;7.90;80.42;101721.16;5040465;28;20062;-55
2022/05/29 01:37:20;;;;;;;12.25;3.88;;;;;;;7.81;80.39;101721.94;5040352;28;20074;-55
2022/05/29 01:40:06;;;;;;;7.38;3.40;;;;;;;7.75;80.71;101722.44;5040464;28;20049;-55
2022/05/29 01:42:43;;;;;;;8.55;3.50;;;;;;;7.65;80.61;101717.09;5039020;28;20063;-55
2022/05/29 01:45:17;;;;;;;7.53;3.42;;;;;;;7.61;80.84;101715.69;5041529;28;20108;-56
2022/05/29 01:47:58;;;;;;;7.00;3.08;;;;;;;7.58;81.37;101710.66;5042386;28;20480;-55
2022/05/29 01:50:28;;;;;;;11.38;3.42;;;;;;;7.56;81.50;101714.41;5039301;28;20033;-56
2022/05/29 01:53:00;;;;;;;7.75;3.53;;;;;;;7.60;81.59;101702.63;5033362;28;20428;-56
2022/05/29 01:55:40;;;;;;;8.98;3.60;;;;;;;7.62;82.06;101698.88;5038023;28;20514;-56
2022/05/29 01:58:11;;;;;;;11.15;3.95;;;;;;;7.66;81.89;101702.94;5038077;28;20039;-56
2022/05/29 02:00:36;;;;;;;9.52;3.92;;;;;;;7.68;82.29;101700.97;5043159;28;20020;-55
2022/05/29 02:03:04;;;;;;;8.57;3.58;;;;;;;7.70;82.57;101696.41;5043484;28;20021;-56
2022/05/29 02:05:37;;;;;;;11.55;3.35;;;;;;;7.69;82.61;101694.72;5044703;28;20039;-56
2022/05/29 02:08:17;;;;;;;9.50;3.90;;;;;;;7.74;82.83;101699.63;5036111;28;20179;-56
2022/05/29 02:11:00;;;;;;;7.57;3.70;;;;;;;7.77;82.69;101691.41;5037949;28;20065;-56
2022/05/29 02:13:48;;;;;;;11.52;4.00;;;;;;;7.81;83.17;101699.97;5042609;28;20055;-55
2022/05/29 02:16:19;;;;;;;11.68;4.15;;;;;;;7.78;82.82;101701.88;5048267;28;20025;-56
2022/05/29 02:18:55;;;;;;;8.90;4.03;;;;;;;7.74;82.53;101686.41;5045113;28;20032;-56
2022/05/29 02:21:32;;;;;;;13.63;4.22;;;;;;;7.74;82.92;101684.59;5045004;28;20043;-56
2022/05/29 02:24:00;;;;;;;9.18;3.90;;;;;;;7.78;83.08;101685.16;5046611;28;20032;-55
2022/05/29 02:26:30;;;;;;;8.85;3.95;;;;;;;7.81;83.06;101687.56;5045772;28;20052;-53
2022/05/29 02:29:03;;;;;;;12.07;4.38;;;;;;;7.83;82.98;101682.97;5045488;28;20056;-55
2022/05/29 02:31:51;;;;;;;13.65;4.50;;;;;;;7.86;83.23;101679.25;5045934;28;20029;-55
2022/05/29 02:34:32;;;;;;;11.77;4.20;;;;;;;7.87;83.37;101680.91;5052207;28;20044;-55
2022/05/29 02:37:13;;;;;;;11.85;4.30;;;;;;;7.90;83.48;101678.00;5040549;28;20036;-53
2022/05/29 02:39:42;;;;;;;10.23;4.25;;;;;;;7.92;83.52;101670.75;5045344;28;20029;-55
2022/05/29 02:42:58;;;;;;;13.30;4.50;;;;;;;7.95;83.38;101667.84;5048088;28;20037;-52
2022/05/29 02:45:37;;;;;;;11.68;4.50;;;;;;;7.92;83.65;101660.19;5020094;28;20044;-54
2022/05/29 02:48:21;;;;;;;12.07;4.80;;;;;;;7.91;83.76;101669.09;5045411;28;20024;-55
2022/05/29 02:51:09;;;;;;;12.23;4.28;;;;;;;7.89;83.89;101657.81;5027382;28;20294;-53
2022/05/29 02:53:34;;;;;;;11.55;4.05;;;;;;;7.88;83.88;101656.13;5043477;28;20152;-54
2022/05/29 02:56:03;;;;;;;15.00;4.78;;;;;;;7.88;84.35;101656.13;5050551;28;20029;-55
2022/05/29 02:58:30;;;;;;;10.70;4.30;;;;;;;7.89;84.54;101655.16;5049084;28;20083;-55
2022/05/29 03:01:25;;;;;;;13.48;4.70;;;;;;;7.88;84.56;101656.97;5047087;28;20021;-56
2022/05/29 03:04:12;;;;;;;16.70;4.70;;;;;;;7.92;84.62;101661.03;5042673;28;21067;-55
2022/05/29 03:06:50;;;;;;;17.48;4.90;;;;;;;7.95;84.83;101658.09;5048869;28;20021;-55
2022/05/29 03:09:25;;;;;;;14.68;4.55;;;;;;;7.96;84.93;101656.31;5045537;28;20528;-55
2022/05/29 03:11:50;;;;;;;12.20;4.32;;;;;;;7.99;85.21;101654.22;5047239;28;20366;-56
2022/05/29 03:14:28;;;;;;;11.13;4.13;;;;;;;8.07;85.31;101664.13;5044411;28;20033;-56
2022/05/29 03:17:09;;;;;;;11.90;4.15;;;;;;;8.04;85.26;101648.53;5040497;28;20044;-54
2022/05/29 03:19:56;;;;;;;12.05;4.60;;;;;;;8.09;85.18;101651.59;5044129;28;20116;-55
2022/05/29 03:22:39;;;;;;;9.52;3.80;;;;;;;8.08;85.19;101655.22;5049434;28;20036;-52
2022/05/29 03:25:14;;;;;;;15.00;4.50;;;;;;;8.11;85.12;101651.50;5042250;28;20468;-56
2022/05/29 03:27:46;;;;;;;11.73;3.97;;;;;;;8.11;85.05;101660.28;5039630;28;20108;-55
2022/05/29 03:30:20;;;;;;;9.15;4.10;;;;;;;8.12;84.92;101651.34;5040168;28;20327;-55
2022/05/29 03:32:48;;;;;;;14.30;4.18;;;;;;;8.11;85.13;101648.84;5039150;28;20623;-55
2022/05/29 03:35:27;;;;;;;12.93;4.22;;;;;;;8.12;85.31;101659.28;5043624;28;20100;-55
2022/05/29 03:37:54;;;;;;;12.07;4.23;;;;;;;8.13;84.96;101645.09;5038595;28;20028;-54
2022/05/29 03:40:20;;;;;;;9.40;4.20;;;;;;;8.12;85.04;101656.66;5042413;28;20086;-54
2022/05/29 03:42:46;;;;;;;14.38;4.38;;;;;;;8.11;85.31;101649.69;5040974;28;20576;-55
2022/05/29 03:45:11;;;;;;;14.38;4.60;;;;;;;8.14;85.23;101646.78;5041078;28;20029;-53
2022/05/29 03:47:38;;;;;;;12.90;4.60;;;;;;;8.19;85.34;101649.00;5041684;28;20029;-53
2022/05/29 03:50:05;;;;;;;10.65;3.75;;;;;;;8.20;85.42;101645.38;5046287;28;20025;-54
2022/05/29 03:52:31;;;;;;;10.43;4.78;;;;;;;8.20;85.33;101635.63;5045904;28;20022;-55
2022/05/29 03:54:57;;;;;;;11.35;3.70;;;;;;;8.19;85.54;101636.63;5044895;28;20070;-55
2022/05/29 03:57:22;;;;;;;11.40;4.38;;;;;;;8.21;85.72;101639.97;5038792;28;20124;-56
2022/05/29 03:59:48;;;;;;;13.57;3.85;;;;;;;8.21;85.40;101633.81;5039746;28;20132;-54
2022/05/29 04:02:13;;;;;;;15.70;4.35;;;;;;;8.14;85.52;101622.97;5039794;28;20028;-53
2022/05/29 04:04:38;;;;;;;17.33;5.38;;;;;;;8.29;85.44;101634.81;5042504;28;20388;-55
2022/05/29 04:07:03;;;;;;;11.95;4.28;;;;;;;8.34;85.58;101629.97;5039429;28;20499;-55
2022/05/29 04:12:13;;;;;;;17.42;4.90;;;;;;;8.42;85.64;101625.84;5040197;28;20103;-55
2022/05/29 04:14:43;;;;;;;11.00;3.85;;;;;;;8.44;85.76;101629.19;5042853;28;20056;-53
2022/05/29 04:17:11;;;;;;;9.52;3.83;;;;;;;8.48;85.65;101633.22;5039846;28;20031;-55
2022/05/29 04:19:36;;;;;;;13.88;4.13;;;;;;;8.54;85.77;101635.31;5039437;28;20128;-55
2022/05/29 04:22:07;;;;;;;14.43;4.70;;;;;;;8.60;86.06;101637.41;5030546;28;20119;-54
2022/05/29 04:24:33;;;;;;;12.70;4.18;;;;;;;8.62;85.77;101641.56;5041637;28;20130;-54
2022/05/29 04:26:58;;;;;;;13.85;4.30;;;;;;;8.67;85.83;101647.31;5038362;28;20472;-52
2022/05/29 04:29:23;;;;;;;11.75;4.10;;;;;;;8.75;86.38;101648.44;5037942;28;20205;-53
2022/05/29 04:34:37;;;;;;;14.27;4.43;;;;;;;8.86;86.29;101651.78;4990462;28;20216;-53
2022/05/29 04:37:04;;;;;;;17.70;5.07;;;;;;;8.87;86.22;101636.72;5039892;28;20149;-52
2022/05/29 04:39:32;;;;;;;13.63;4.53;;;;;;;8.87;86.37;101634.91;5038864;28;20029;-55
2022/05/29 04:41:58;;;;;;;12.43;4.37;;;;;;;8.96;86.60;101634.06;5038112;28;20111;-54
2022/05/29 04:44:24;;;;;;;11.10;4.03;;;;;;;8.98;86.66;101626.00;5039010;28;20025;-54
2022/05/29 04:46:49;;;;;;;12.13;4.80;;;;;;;8.96;86.59;101631.44;5040226;28;20484;-55
2022/05/29 04:49:14;;;;;;;15.38;5.00;;;;;;;8.94;86.78;101622.75;5041694;28;20090;-55
2022/05/29 04:51:39;;;;;;;12.55;3.95;;;;;;;8.85;86.39;101626.25;5049003;28;20014;-56
2022/05/29 04:54:05;;;;;;;10.52;4.03;;;;;;;8.83;86.54;101625.56;5043781;28;20535;-55
2022/05/29 04:56:30;;;;;;;11.15;4.63;;;;;;;8.85;86.63;101628.06;5040854;28;20040;-55
2022/05/29 04:58:55;;;;;;;15.82;4.95;;;;;;;8.82;86.71;101623.06;5038201;28;20499;-56
2022/05/29 05:01:20;;;;;;;12.75;4.45;;;;;;;8.77;86.77;101626.13;5039372;28;21300;-54
2022/05/29 05:03:46;;;;;;;14.18;4.40;;;;;;;8.79;86.73;101618.88;5039976;28;20037;-55
2022/05/29 05:06:11;;;;;;;15.57;4.70;;;;;;;8.80;86.84;101620.53;5040572;28;20032;-55
2022/05/29 05:08:36;;;;;;;11.82;4.50;;;;;;;8.82;87.22;101621.25;5039735;28;20047;-55
2022/05/29 05:11:02;;;;;;;11.45;4.18;;;;;;;8.85;87.25;101615.66;5036742;28;20162;-53
2022/05/29 05:13:27;;;;;;;11.50;4.32;;;;;;;8.89;87.14;101608.28;5036211;28;20029;-55
2022/05/29 05:16:03;;;;;;;12.75;4.50;;;;;;;9.01;87.73;101612.47;5042276;28;20063;-55
2022/05/29 05:18:29;;;;;;;16.30;5.00;;;;;;;9.06;87.83;101610.22;5039390;28;20025;-54
2022/05/29 05:20:54;;;;;;;12.65;4.68;;;;;;;9.14;87.81;101606.84;5046153;28;20032;-55
2022/05/29 05:23:19;;;;;;;10.88;5.07;;;;;;;9.15;88.26;101608.53;5050648;28;20029;-52
2022/05/29 05:25:45;;;;;;;12.52;4.47;;;;;;;9.13;88.22;101603.38;5044079;28;20120;-52
2022/05/29 05:28:10;;;;;;;11.70;4.10;;;;;;;9.12;88.01;101600.84;5040133;28;20087;-55
2022/05/29 05:30:35;;;;;;;10.32;4.65;;;;;;;9.10;88.12;101605.47;5039269;28;20048;-54
2022/05/29 05:33:00;;;;;;;8.90;4.82;;;;;;;9.11;87.88;101601.84;5044791;28;20039;-54
2022/05/29 05:35:26;;;;;;;11.75;4.88;;;;;;;9.04;88.18;101596.28;5039126;28;20036;-53
2022/05/29 05:37:51;;;;;;;10.93;4.85;;;;;;;9.00;88.48;101598.38;5041016;28;20110;-54
2022/05/29 05:40:16;;;;;;;10.15;4.60;;;;;;;9.04;88.42;101598.09;5038303;28;20508;-55
2022/05/29 05:42:42;;;;;;;9.27;4.72;;;;;;;9.07;88.63;101603.09;5037600;28;20025;-53
2022/05/29 05:45:10;;;;;;;15.52;4.90;;;;;;;9.08;88.85;101604.78;5037721;28;20514;-54
2022/05/29 05:47:36;;;;;;;12.80;4.88;;;;;;;9.13;89.25;101605.19;5035092;28;20049;-54
2022/05/29 05:50:01;;;;;;;15.10;5.13;;;;;;;9.14;89.46;101598.91;5047523;28;20109;-54
2022/05/29 05:52:27;;;;;;;12.27;4.78;;;;;;;9.20;89.20;101606.28;5043545;28;20515;-54
2022/05/29 05:54:52;;;;;;;10.68;4.63;;;;;;;9.29;89.57;101602.78;5042140;28;20020;-53
2022/05/29 05:57:18;;;;;;;12.45;4.75;;;;;;;9.31;89.74;101598.16;5036667;28;20365;-55
2022/05/29 05:59:44;;;;;;;11.32;4.72;;;;;;;9.36;89.04;101597.75;5038298;28;20029;-54
2022/05/29 06:02:09;;;;;;;14.18;4.68;;;;;;;9.38;89.17;101598.44;5040591;28;20036;-53
2022/05/29 06:04:37;;;;;;;9.43;4.75;;;;;;;9.41;89.22;101604.28;5036300;28;20016;-54
2022/05/29 06:07:03;;;;;;;10.15;4.68;;;;;;;9.44;88.91;101603.97;5038999;28;20032;-54
2022/05/29 06:09:29;;;;;;;11.00;4.35;;;;;;;9.47;89.23;101603.69;5018168;28;20844;-55
2022/05/29 06:11:55;;;;;;;10.57;4.75;;;;;;;9.48;88.94;101592.09;5043487;28;20017;-54
2022/05/29 06:14:20;;;;;;;11.75;4.60;;;;;;;9.49;88.73;101598.25;5046099;28;20028;-51
2022/05/29 06:16:45;;;;;;;12.02;4.57;;;;;;;9.53;88.72;101597.78;5040033;28;20047;-51
2022/05/29 06:19:10;;;;;;;11.57;4.40;;;;;;;9.57;89.13;101596.56;5045453;28;20424;-52
2022/05/29 06:21:36;;;;;;;10.48;4.20;;;;;;;9.62;88.91;101598.75;5041032;28;20531;-53
2022/05/29 06:24:02;;;;;;;10.32;4.25;;;;;;;9.66;88.96;101594.84;5046848;28;20116;-55
2022/05/29 06:26:27;;;;;;;9.13;3.92;;;;;;;9.72;88.83;101598.72;5042133;28;20365;-51
2022/05/29 06:28:53;;;;;;;13.10;4.63;;;;;;;9.78;88.88;101600.78;5046772;28;20024;-52
2022/05/29 06:31:18;;;;;;;11.40;4.45;;;;;;;9.85;89.17;101601.88;5047824;28;20073;-56
2022/05/29 06:33:43;;;;;;;13.80;4.30;;;;;;;9.84;89.42;101585.13;5050739;28;20484;-54
2022/05/29 06:36:16;;;;;;;14.98;5.03;;;;;;;9.96;89.09;101592.88;5051173;28;20314;-54
2022/05/29 06:38:44;;;;;;;10.90;4.78;;;;;;;10.04;89.13;101596.44;5041393;28;20025;-55
2022/05/29 06:41:11;;;;;;;12.27;4.80;;;;;;;10.07;89.27;101595.31;5043501;28;20457;-54
2022/05/29 06:43:37;;;;;;;11.02;4.72;;;;;;;10.11;89.13;101597.53;5042317;28;20040;-54
2022/05/29 06:46:04;;;;;;;13.35;4.60;;;;;;;10.16;89.08;101594.44;5049427;28;20472;-54
2022/05/29 06:48:33;;;;;;;14.55;4.78;;;;;;;10.21;89.33;101593.03;5042550;28;20439;-54
2022/05/29 06:51:09;;;;;;;;;;;;;;;10.26;88.88;101599.72;5047018;28;20029;-53
2022/05/29 06:53:35;;;;;;;12.48;5.15;;;;;;;10.23;88.64;101598.19;5043091;28;19928;-55
2022/05/29 06:56:00;;;;;;;11.30;4.57;;;;;;;10.28;88.75;101592.44;5042242;28;20115;-55
2022/05/29 06:58:25;;;;;;;12.95;5.10;;;;;;;10.33;88.82;101595.47;5041520;28;20039;-54
2022/05/29 07:09:04;;;;;;;9.48;3.60;;;;;;;10.73;88.34;101598.53;5047758;28;20090;-54
2022/05/29 07:11:34;;;;;;;14.57;4.28;;;;;;;10.78;87.85;101596.25;5050739;28;20686;-54
2022/05/29 07:14:02;;;;;;;7.65;3.28;;;;;;;10.85;87.07;101605.25;5049471;28;20105;-54
2022/05/29 07:16:27;;;;;;;9.57;3.40;;;;;;;10.85;86.17;101597.28;5049413;28;20025;-55
2022/05/29 07:18:54;;;;;;;9.55;3.10;;;;;;;10.87;85.56;101591.81;5061580;28;20039;-54
2022/05/29 07:21:20;;;;;;;12.25;3.17;;;;;;;10.91;85.05;101593.19;5042191;28;20405;-55
2022/05/29 07:23:46;;;;;;;13.23;3.42;;;;;;;10.99;85.20;101595.09;5045450;28;20484;-53
2022/05/29 07:26:11;;;;;;;10.90;3.58;;;;;;;11.09;85.35;101593.16;5049886;28;20049;-55
2022/05/29 07:28:37;;;;;;;6.72;3.17;;;;;;;11.22;85.28;101598.03;5048571;28;20024;-55
2022/05/29 07:31:03;;;;;;;15.57;3.60;;;;;;;11.27;84.17;101585.94;5050018;28;20039;-54
2022/05/29 07:33:28;;;;;;;12.07;3.00;;;;;;;11.32;83.84;101588.16;5053296;28;20076;-54
2022/05/29 07:35:53;;;;;;;9.07;3.08;;;;;;;11.39;82.89;101589.19;5050468;28;20443;-55
2022/05/29 07:38:19;;;;;;;11.65;3.45;;;;;;;11.44;82.52;101587.72;5048134;28;20029;-55
2022/05/29 07:40:44;;;;;;;10.20;3.17;;;;;;;11.47;82.37;101574.09;5049642;28;20032;-55
2022/05/29 07:43:22;;;;;;;13.38;3.30;;;;;;;11.53;81.88;101572.63;5043025;28;20065;-53
2022/05/29 07:45:54;;;;;;;13.68;5.00;;;;;;;11.63;81.64;101577.84;5051172;28;20024;-54
2022/05/29 07:48:23;;;;;;;13.05;3.05;;;;;;;11.68;81.36;101581.69;5045201;28;20029;-53
2022/05/29 07:50:49;;;;;;;9.43;3.20;;;;;;;11.87;80.96;101588.63;5047057;28;20104;-53
2022/05/29 07:53:14;;;;;;;12.85;3.28;;;;;;;11.98;80.38;101579.50;5047571;28;20143;-54
2022/05/29 07:55:40;;;;;;;10.23;2.88;;;;;;;12.09;79.66;101577.38;5052626;28;20052;-53
2022/05/29 07:58:06;;;;;;;11.45;3.50;;;;;;;12.22;80.01;101581.41;5048391;28;20106;-54
2022/05/29 08:00:33;;;;;;;9.73;2.97;;;;;;;12.39;80.15;101575.09;5052297;28;20047;-53
2022/05/29 08:02:59;;;;;;;9.55;2.90;;;;;;;12.43;79.29;101570.28;5048593;28;20480;-54
2022/05/29 08:05:25;;;;;;;13.48;2.88;;;;;;;12.48;78.53;101560.81;5048239;28;20024;-54
2022/05/29 08:07:51;;;;;;;10.13;3.10;;;;;;;12.55;77.39;101566.31;5049442;28;20023;-54
2022/05/29 08:10:20;;;;;;;11.38;2.60;;;;;;;12.56;77.65;101571.47;5046869;28;20476;-55
2022/05/29 08:12:46;;;;;;;11.75;2.75;;;;;;;12.51;76.91;101568.47;5046394;28;20476;-55
2022/05/29 08:15:11;;;;;;;12.48;2.78;;;;;;;12.49;76.26;101570.47;5049460;28;20027;-54
2022/05/29 08:17:37;;;;;;;8.38;2.33;;;;;;;12.50;76.07;101569.47;5047539;28;20020;-51
2022/05/29 08:20:04;;;;;;;9.90;2.60;;;;;;;12.49;75.51;101574.97;5046424;28;20283;-52
2022/05/29 08:22:29;;;;;;;8.52;2.47;;;;;;;12.59;75.62;101568.47;5056512;28;20017;-54
2022/05/29 08:30:41;;;;;;;11.70;2.65;;;;;;;12.78;75.61;101562.00;5048830;28;20040;-53
2022/05/29 08:33:28;;;;;;;9.30;2.35;;;;;;;12.85;75.04;101570.16;5051320;28;20484;-54
2022/05/29 08:35:59;;;;;;;14.82;3.08;;;;;;;12.73;73.97;101561.66;5052478;28;20032;-52
2022/05/29 08:38:25;;;;;;;9.73;2.45;;;;;;;12.93;74.12;101560.28;5045572;28;20029;-55
2022/05/29 08:40:57;;;;;;;9.02;2.38;;;;;;;13.09;74.24;101564.78;5054011;28;20066;-55
2022/05/29 08:43:28;;;;;;;9.63;2.28;;;;;;;13.25;73.62;101553.28;5045613;28;20431;-54
2022/05/29 08:45:54;;;;;;;7.47;2.03;;;;;;;13.40;72.03;101545.41;5051516;28;20037;-54
2022/05/29 08:48:23;;;;;;;14.25;3.22;;;;;;;13.44;71.46;101547.56;5044993;28;20021;-52
2022/05/29 08:51:09;;;;;;;;;;;;;;;13.63;71.46;101541.81;5047562;28;20116;-52
2022/05/29 08:54:16;;;;;;;11.00;2.45;;;;;;;13.62;70.73;101553.50;5007739;28;20415;-54
2022/05/29 08:57:05;;;;;;;8.15;2.15;;;;;;;13.53;69.74;101551.03;5024806;28;20091;-55
2022/05/29 08:59:44;;;;;;;12.82;2.28;;;;;;;13.43;69.56;101553.06;5047352;28;20029;-53
2022/05/29 09:02:22;;;;;;;8.30;2.22;;;;;;;13.37;69.17;101543.09;5046092;28;20029;-51
2022/05/29 09:04:54;;;;;;;6.20;1.42;;;;;;;13.35;69.20;101535.25;5050230;28;20035;-55
2022/05/29 09:07:22;;;;;;;6.97;1.80;;;;;;;13.44;69.19;101547.56;5046721;28;20028;-54
2022/05/29 09:10:00;;;;;;;6.22;1.40;;;;;;;13.73;69.76;101538.94;5046797;28;20029;-53
2022/05/29 09:12:31;;;;;;;6.63;1.88;;;;;;;14.01;69.25;101541.13;5035765;28;20033;-54
2022/05/29 09:15:04;;;;;;;3.85;1.52;;;;;;;14.24;67.66;101531.31;5045449;28;20029;-53
2022/05/29 09:17:35;;;;;;;8.45;1.95;;;;;;;14.60;66.82;101528.06;5038170;28;20029;-52
2022/05/29 09:20:06;;;;;;;12.43;5.47;;;;;;;14.68;64.76;101527.97;5044941;28;20025;-55
2022/05/29 09:22:39;;;;;;;16.52;10.45;;;;;;;14.62;63.84;101520.69;5040096;28;20064;-55
2022/05/29 09:25:16;;;;;;;5.50;2.05;;;;;;;14.67;63.96;101515.63;5038868;28;20025;-54
2022/05/29 09:27:49;;;;;;;8.63;1.70;;;;;;;14.65;63.33;101521.16;5042748;28;20021;-54
2022/05/29 09:30:17;;;;;;;6.63;1.50;;;;;;;14.64;62.83;101516.00;5040293;28;20083;-54
2022/05/29 09:32:50;;;;;;;5.47;1.35;;;;;;;14.64;62.56;101510.63;5040809;28;20040;-53
2022/05/29 09:35:25;;;;;;;6.13;1.83;;;;;;;14.74;63.10;101514.72;5041915;28;20531;-54
2022/05/29 09:37:56;;;;;;;7.72;1.30;;;;;;;14.85;62.60;101513.47;5043889;28;20021;-53
2022/05/29 09:40:31;;;;;;;4.60;1.30;;;;;;;14.89;61.63;101506.72;5042193;28;20043;-55
2022/05/29 09:42:57;;;;;;;4.85;1.40;;;;;;;15.18;62.72;101501.41;5042129;28;20029;-55
2022/05/29 09:45:33;;;;;;;6.57;1.40;;;;;;;15.38;62.02;101506.19;5042150;28;20036;-51
2022/05/29 09:50:53;;;;;;;6.47;1.70;;;;;;;15.58;61.48;101511.78;5042272;28;20170;-55
2022/05/29 09:53:23;;;;;;;3.53;1.45;;;;;;;15.49;60.85;101508.41;5042384;28;20055;-53
2022/05/29 09:55:55;;;;;;;3.88;1.00;;;;;;;15.34;60.41;101510.28;5042942;28;20025;-54
2022/05/29 09:58:30;;;;;;;3.35;1.08;;;;;;;15.30;60.62;101503.59;5040842;28;20029;-54
2022/05/29 10:01:01;;;;;;;2.08;0.77;;;;;;;15.20;60.33;101509.25;5040780;28;20476;-53
2022/05/29 10:03:34;;;;;;;1.88;0.88;;;;;;;15.08;60.92;101508.88;5041816;28;20500;-54
2022/05/29 10:06:10;;;;;;;2.47;0.70;;;;;;;14.90;61.50;101511.06;5042535;28;20066;-52
2022/05/29 10:08:35;;;;;;;1.38;0.50;;;;;;;14.61;61.03;101505.66;5043801;28;20021;-53
2022/05/29 10:11:19;;;;;;;2.42;0.88;;;;;;;14.46;62.28;101511.81;5042281;28;20066;-54
2022/05/29 10:13:46;;;;;;;1.67;0.70;;;;;;;14.27;62.80;101506.91;5036662;28;20039;-55
2022/05/29 10:16:13;;;;;;;4.75;1.00;;;;;;;14.16;63.15;101501.97;5045774;28;20071;-53
2022/05/29 10:18:42;;;;;;;1.40;0.70;;;;;;;14.12;63.71;101509.50;5042060;28;20028;-55
2022/05/29 10:21:17;;;;;;;1.65;0.70;;;;;;;14.11;64.29;101509.69;5041466;28;20233;-53
2022/05/29 10:23:52;;;;;;;3.88;0.80;;;;;;;14.14;64.65;101509.31;5034145;28;20076;-51
2022/05/29 10:26:32;;;;;;;1.50;0.77;;;;;;;14.17;64.88;101501.81;5039482;28;20044;-55
2022/05/29 10:28:58;;;;;;;3.13;0.90;;;;;;;14.24;65.71;101502.75;5037497;28;20028;-52
2022/05/29 10:31:36;;;;;;;3.05;0.90;;;;;;;14.44;66.03;101503.09;5035688;28;20028;-53
2022/05/29 10:34:16;;;;;;;3.25;1.00;;;;;;;14.54;65.76;101511.72;5045348;28;20090;-54
2022/05/29 10:36:41;;;;;;;2.53;1.08;;;;;;;14.61;65.72;101501.16;5035451;28;20180;-54
2022/05/29 10:39:13;;;;;;;8.90;1.27;;;;;;;14.59;66.00;101491.66;5043713;28;20447;-52
2022/05/29 10:41:41;;;;;;;2.83;1.10;;;;;;;14.37;65.19;101512.84;5041799;28;20048;-53
2022/05/29 10:44:10;;;;;;;8.63;1.25;;;;;;;14.19;65.68;101515.81;5043536;28;20025;-52
2022/05/29 10:46:39;;;;;;;3.53;1.10;;;;;;;13.94;65.88;101517.81;5042086;28;20033;-54
2022/05/29 10:49:26;;;;;;;6.47;1.10;;;;;;;13.84;66.70;101516.34;5041373;28;20389;-54
2022/05/29 10:52:24;;;;;;;5.70;1.65;;;;;;;13.68;68.42;101511.94;5042259;28;20563;-54
2022/05/29 10:55:17;;;;;;;3.03;0.90;;;;;;;13.52;69.56;101504.81;5041628;28;20028;-55
2022/05/29 10:58:01;;;;;;;4.50;1.10;;;;;;;13.33;70.38;101513.25;5033234;28;20037;-54
2022/05/29 11:01:00;;;;;;;3.55;1.30;;;;;;;13.31;71.50;101515.28;5037113;28;20054;-55
2022/05/29 11:03:39;;;;;;;3.70;1.17;;;;;;;13.28;72.48;101507.59;5039990;28;20059;-54
2022/05/29 11:06:45;;;;;;;7.22;1.42;;;;;;;13.27;73.04;101511.25;5041615;28;20027;-54
2022/05/29 11:09:29;;;;;;;5.90;1.30;;;;;;;13.38;72.73;101510.06;5035754;28;20515;-55
2022/05/29 11:12:16;;;;;;;4.60;1.10;;;;;;;13.41;72.25;101507.88;5040089;28;20023;-54
2022/05/29 11:14:48;;;;;;;3.03;1.10;;;;;;;13.57;72.89;101502.47;5041446;28;20108;-53
2022/05/29 11:17:40;;;;;;;2.42;1.33;;;;;;;13.55;73.15;101503.66;5045478;28;20452;-53
2022/05/29 11:20:25;;;;;;;3.42;1.30;;;;;;;13.51;73.29;101513.00;5045236;28;20032;-54
2022/05/29 11:23:09;;;;;;;4.53;1.08;;;;;;;13.39;73.10;101517.06;5044516;28;20119;-55
2022/05/29 11:25:34;;;;;;;1.00;0.70;;;;;;;13.04;72.81;101511.16;5046616;28;20028;-52
2022/05/29 11:28:23;;;;;;;1.88;0.80;;;;;;;12.87;73.36;101512.16;5041517;28;20036;-52
2022/05/29 11:31:05;;;;;;;1.13;0.73;;;;;;;12.77;73.08;101508.84;5028722;28;20499;-50
2022/05/29 11:33:33;;;;;;;1.30;0.52;;;;;;;12.80;73.44;101512.00;5043976;28;20029;-55
2022/05/29 11:36:05;;;;;;;4.18;0.65;;;;;;;12.77;72.83;101506.19;5047318;28;20036;-53
2022/05/29 11:38:48;;;;;;;2.33;0.68;;;;;;;12.92;73.47;101507.97;5043377;28;20412;-55
2022/05/29 11:41:24;;;;;;;1.35;0.70;;;;;;;13.25;74.33;101503.44;5044273;28;20041;-54
2022/05/29 11:44:00;;;;;;;1.30;0.80;;;;;;;13.43;74.77;101508.53;5045013;28;20132;-54
2022/05/29 11:52:42;;;;;;;2.70;0.70;;;;;;;13.92;73.86;101489.63;5049470;28;20032;-54
2022/05/29 11:55:26;;;;;;;5.25;0.90;;;;;;;13.73;72.97;101490.88;5044828;28;20024;-53
2022/05/29 11:58:03;;;;;;;2.88;0.80;;;;;;;13.61;72.76;101485.13;5046033;28;20098;-54
2022/05/29 12:00:35;;;;;;;1.85;0.80;;;;;;;13.36;72.85;101485.41;5051516;28;20039;-53
2022/05/29 12:03:38;;;;;;;1.52;0.80;;;;;;;13.18;72.77;101493.63;5048772;28;20031;-51
2022/05/29 12:06:14;;;;;;;3.97;0.98;;;;;;;12.77;72.65;101501.69;5050940;28;20028;-55
2022/05/29 12:08:46;;;;;;;2.47;0.98;;;;;;;12.63;73.64;101495.19;5046205;28;20033;-53
2022/05/29 12:11:33;;;;;;;2.20;0.90;;;;;;;12.50;73.87;101502.03;5045137;28;20044;-53
2022/05/29 12:14:21;;;;;;;3.70;1.40;;;;;;;12.39;74.42;101497.84;5049922;28;20037;-54
2022/05/29 12:16:59;;;;;;;2.60;1.15;;;;;;;12.30;74.52;101501.53;5048451;28;20476;-55
2022/05/29 12:19:31;;;;;;;4.85;1.77;;;;;;;12.28;75.28;101504.34;5047979;28;20403;-54